UAE514 OMDB-VIDP
Flight info
| Callsign | UAE514 |
|---|---|
| Flight time | N/A |
| Altitude | 39000 |
| Route | IVURO M677 LALDO B505 EGTAL R462 BIVIN G214 RK G202 MERUN G452 LKA LKA7C |
| Aircraft | B77W/H-SDE1E2E3FGHIJ2J3J4J5M1RWXY/LB1D1 |
Departure
| Time | N/A |
|---|---|
| Airport | Dubai International Airport (OMDB) |
Arrival
| Time | 2026-04-30 19:54 |
|---|---|
| Airport | Indira Gandhi International Airport (VIDP) |
| Time | Latitude | Longitude | Altitude | Speed | Heading |
|---|---|---|---|---|---|
| 2026-04-30 17:39 | 24.78363 | 58.42561 | 36804 ft | 521 kts | 97° |
| 2026-04-30 17:42 | 24.74986 | 58.82205 | 36806 ft | 521 kts | 97° |
| 2026-04-30 17:43 | 24.73252 | 59.02027 | 36816 ft | 521 kts | 98° |
| 2026-04-30 17:44 | 24.71265 | 59.24464 | 36815 ft | 520 kts | 98° |
| 2026-04-30 17:47 | 24.68048 | 59.59976 | 36814 ft | 518 kts | 98° |
| 2026-04-30 17:48 | 24.65492 | 59.87501 | 36819 ft | 516 kts | 98° |
| 2026-04-30 17:50 | 24.62519 | 60.18894 | 36815 ft | 516 kts | 98° |
| 2026-04-30 17:52 | 24.60251 | 60.42390 | 36824 ft | 515 kts | 98° |
| 2026-04-30 17:53 | 24.59113 | 60.61927 | 36831 ft | 519 kts | 82° |
| 2026-04-30 17:54 | 24.64407 | 60.76676 | 36828 ft | 522 kts | 63° |
| 2026-04-30 17:56 | 24.74527 | 61.00503 | 36828 ft | 524 kts | 66° |
| 2026-04-30 17:58 | 24.83337 | 61.22486 | 36834 ft | 523 kts | 66° |
| 2026-04-30 18:00 | 24.95089 | 61.51778 | 36823 ft | 522 kts | 66° |
| 2026-04-30 18:01 | 25.02539 | 61.70058 | 36830 ft | 524 kts | 66° |
| 2026-04-30 18:02 | 25.07629 | 61.80689 | 36831 ft | 523 kts | 54° |
| 2026-04-30 18:02 | 25.14691 | 61.89813 | 36813 ft | 522 kts | 45° |
| 2026-04-30 18:04 | 25.29475 | 62.07598 | 36834 ft | 526 kts | 46° |
| 2026-04-30 18:06 | 25.49125 | 62.31596 | 36814 ft | 527 kts | 45° |
| 2026-04-30 18:08 | 25.66306 | 62.52676 | 36814 ft | 526 kts | 46° |
| 2026-04-30 18:10 | 25.85872 | 62.76794 | 36814 ft | 525 kts | 46° |
| 2026-04-30 18:11 | 26.02963 | 62.97966 | 36813 ft | 525 kts | 46° |
| 2026-04-30 18:13 | 26.15142 | 63.13050 | 36819 ft | 525 kts | 45° |
| 2026-04-30 18:14 | 26.27354 | 63.28236 | 36811 ft | 525 kts | 46° |
| 2026-04-30 18:15 | 26.38529 | 63.42177 | 36812 ft | 525 kts | 46° |
| 2026-04-30 18:16 | 26.48245 | 63.54333 | 36803 ft | 525 kts | 46° |
| 2026-04-30 18:17 | 26.53067 | 63.60380 | 36832 ft | 524 kts | 46° |
| 2026-04-30 18:18 | 26.60342 | 63.69518 | 36820 ft | 525 kts | 46° |
| 2026-04-30 18:18 | 26.65191 | 63.75619 | 36817 ft | 525 kts | 46° |
| 2026-04-30 18:19 | 26.70034 | 63.81722 | 36812 ft | 525 kts | 46° |
| 2026-04-30 18:19 | 26.74883 | 63.87839 | 36814 ft | 525 kts | 46° |
| 2026-04-30 18:20 | 26.79729 | 63.93961 | 36831 ft | 525 kts | 46° |
| 2026-04-30 18:20 | 26.84574 | 64.00094 | 36810 ft | 526 kts | 46° |
| 2026-04-30 18:21 | 26.89416 | 64.06230 | 36815 ft | 526 kts | 45° |
| 2026-04-30 18:21 | 26.93863 | 64.12751 | 36834 ft | 530 kts | 59° |
| 2026-04-30 18:22 | 26.96638 | 64.20415 | 36811 ft | 533 kts | 77° |
| 2026-04-30 18:22 | 26.98697 | 64.32655 | 36805 ft | 533 kts | 80° |
| 2026-04-30 18:23 | 27.00026 | 64.40833 | 36803 ft | 533 kts | 79° |
| 2026-04-30 18:23 | 27.01413 | 64.49003 | 36804 ft | 534 kts | 79° |
| 2026-04-30 18:24 | 27.03538 | 64.61256 | 36794 ft | 534 kts | 79° |
| 2026-04-30 18:25 | 27.04941 | 64.69437 | 36799 ft | 535 kts | 79° |
| 2026-04-30 18:25 | 27.07037 | 64.81735 | 36794 ft | 535 kts | 79° |
| 2026-04-30 18:26 | 27.09122 | 64.94033 | 36787 ft | 535 kts | 79° |
| 2026-04-30 18:27 | 27.11181 | 65.06273 | 36786 ft | 535 kts | 79° |
| 2026-04-30 18:28 | 27.13250 | 65.18581 | 36789 ft | 534 kts | 79° |
| 2026-04-30 18:28 | 27.15300 | 65.30883 | 36788 ft | 535 kts | 79° |
| 2026-04-30 18:29 | 27.18019 | 65.47320 | 36778 ft | 536 kts | 79° |
| 2026-04-30 18:30 | 27.20513 | 65.62462 | 36775 ft | 537 kts | 79° |
| 2026-04-30 18:31 | 27.22526 | 65.74793 | 36778 ft | 538 kts | 79° |
| 2026-04-30 18:32 | 27.24545 | 65.87220 | 36771 ft | 540 kts | 79° |
| 2026-04-30 18:33 | 27.26553 | 65.99651 | 36771 ft | 538 kts | 79° |
| 2026-04-30 18:33 | 27.28838 | 66.11992 | 36763 ft | 536 kts | 71° |
| 2026-04-30 18:34 | 27.32229 | 66.23952 | 36788 ft | 536 kts | 70° |
| 2026-04-30 18:35 | 27.32855 | 66.26139 | 36792 ft | 536 kts | 70° |
| 2026-04-30 18:35 | 27.35103 | 66.34142 | 36796 ft | 537 kts | 71° |
| 2026-04-30 18:36 | 27.38235 | 66.46247 | 36794 ft | 539 kts | 78° |
| 2026-04-30 18:37 | 27.39883 | 66.58781 | 36804 ft | 540 kts | 81° |
| 2026-04-30 18:37 | 27.40929 | 66.67138 | 36785 ft | 540 kts | 81° |
| 2026-04-30 18:38 | 27.42011 | 66.75490 | 36790 ft | 539 kts | 81° |
| 2026-04-30 18:38 | 27.43112 | 66.83833 | 36783 ft | 539 kts | 80° |
| 2026-04-30 18:39 | 27.44207 | 66.92169 | 36779 ft | 538 kts | 81° |
| 2026-04-30 18:39 | 27.45291 | 67.00489 | 36796 ft | 537 kts | 81° |
| 2026-04-30 18:40 | 27.46374 | 67.08822 | 36783 ft | 538 kts | 81° |
| 2026-04-30 18:40 | 27.47451 | 67.17152 | 36786 ft | 537 kts | 81° |
| 2026-04-30 18:41 | 27.48519 | 67.25481 | 36782 ft | 537 kts | 81° |
| 2026-04-30 18:41 | 27.49585 | 67.33811 | 36763 ft | 536 kts | 81° |
| 2026-04-30 18:42 | 27.50640 | 67.42116 | 36772 ft | 536 kts | 81° |
| 2026-04-30 18:42 | 27.51697 | 67.50471 | 37180 ft | 540 kts | 81° |
| 2026-04-30 18:42 | 27.52223 | 67.54654 | 37571 ft | 538 kts | 81° |
| 2026-04-30 18:45 | 27.57401 | 67.96288 | 38776 ft | 534 kts | 81° |
| 2026-04-30 18:45 | 27.57908 | 68.00434 | 38770 ft | 534 kts | 81° |
| 2026-04-30 18:46 | 27.58922 | 68.08728 | 38768 ft | 534 kts | 80° |
| 2026-04-30 18:46 | 27.59933 | 68.17032 | 38777 ft | 535 kts | 81° |
| 2026-04-30 18:47 | 27.60939 | 68.25353 | 38767 ft | 536 kts | 81° |
| 2026-04-30 18:47 | 27.61942 | 68.33679 | 38769 ft | 536 kts | 81° |
| 2026-04-30 18:48 | 27.62939 | 68.42017 | 38762 ft | 537 kts | 81° |
| 2026-04-30 18:48 | 27.63934 | 68.50366 | 38759 ft | 537 kts | 81° |
| 2026-04-30 18:49 | 27.64924 | 68.58714 | 38761 ft | 537 kts | 81° |
| 2026-04-30 18:49 | 27.65910 | 68.67067 | 38757 ft | 537 kts | 81° |
| 2026-04-30 18:50 | 27.66886 | 68.75415 | 38759 ft | 536 kts | 81° |
| 2026-04-30 18:50 | 27.67855 | 68.83747 | 38760 ft | 535 kts | 81° |
| 2026-04-30 18:51 | 27.68824 | 68.92054 | 38757 ft | 534 kts | 81° |
| 2026-04-30 18:51 | 27.69781 | 69.00352 | 38758 ft | 533 kts | 81° |
| 2026-04-30 18:52 | 27.70732 | 69.08649 | 38756 ft | 532 kts | 80° |
| 2026-04-30 18:52 | 27.71676 | 69.16921 | 38761 ft | 531 kts | 80° |
| 2026-04-30 18:53 | 27.72616 | 69.25200 | 38749 ft | 531 kts | 80° |
| 2026-04-30 18:53 | 27.73550 | 69.33466 | 38749 ft | 531 kts | 80° |
| 2026-04-30 18:54 | 27.74481 | 69.41741 | 38748 ft | 531 kts | 80° |
| 2026-04-30 18:54 | 27.75404 | 69.50006 | 38728 ft | 531 kts | 80° |
| 2026-04-30 18:55 | 27.75671 | 69.52426 | 38727 ft | 532 kts | 80° |
| 2026-04-30 18:55 | 27.77047 | 69.64855 | 38738 ft | 532 kts | 80° |
| 2026-04-30 18:56 | 27.78409 | 69.77239 | 38731 ft | 533 kts | 80° |
| 2026-04-30 18:57 | 27.79764 | 69.89662 | 38731 ft | 532 kts | 80° |
| 2026-04-30 18:57 | 27.80660 | 69.97964 | 38730 ft | 533 kts | 80° |
| 2026-04-30 18:58 | 27.81996 | 70.10414 | 38731 ft | 532 kts | 80° |
| 2026-04-30 18:59 | 27.83324 | 70.22859 | 38735 ft | 533 kts | 80° |
| 2026-04-30 19:00 | 27.85078 | 70.39489 | 38730 ft | 533 kts | 80° |
| 2026-04-30 19:01 | 27.86809 | 70.56131 | 38721 ft | 533 kts | 80° |
| 2026-04-30 19:02 | 27.88091 | 70.68584 | 38724 ft | 531 kts | 80° |
| 2026-04-30 19:03 | 27.89785 | 70.85163 | 38723 ft | 531 kts | 80° |
| 2026-04-30 19:04 | 27.91450 | 71.01728 | 38724 ft | 530 kts | 80° |
| 2026-04-30 19:05 | 27.93104 | 71.18295 | 38721 ft | 530 kts | 80° |
| 2026-04-30 19:06 | 27.94727 | 71.34807 | 38722 ft | 530 kts | 79° |
| 2026-04-30 19:06 | 27.95934 | 71.47225 | 38731 ft | 530 kts | 79° |
| 2026-04-30 19:07 | 27.97130 | 71.59646 | 38720 ft | 530 kts | 79° |
| 2026-04-30 19:08 | 27.98713 | 71.76247 | 38721 ft | 530 kts | 79° |
| 2026-04-30 19:09 | 27.99887 | 71.88713 | 38721 ft | 531 kts | 79° |
| 2026-04-30 19:09 | 28.00663 | 71.97032 | 38734 ft | 532 kts | 79° |
| 2026-04-30 19:10 | 28.02200 | 72.13673 | 38741 ft | 532 kts | 79° |
| 2026-04-30 19:11 | 28.03345 | 72.26168 | 38740 ft | 532 kts | 79° |
| 2026-04-30 19:12 | 28.04102 | 72.34508 | 38749 ft | 533 kts | 79° |
| 2026-04-30 19:12 | 28.04852 | 72.42844 | 38747 ft | 533 kts | 80° |
| 2026-04-30 19:13 | 28.06335 | 72.59520 | 38751 ft | 532 kts | 80° |
| 2026-04-30 19:14 | 28.07068 | 72.67853 | 38747 ft | 531 kts | 80° |
| 2026-04-30 19:14 | 28.07798 | 72.76173 | 38748 ft | 530 kts | 80° |
| 2026-04-30 19:15 | 28.07845 | 72.76710 | 38747 ft | 530 kts | 80° |
| 2026-04-30 19:15 | 28.08919 | 72.89061 | 38752 ft | 530 kts | 80° |
| 2026-04-30 19:16 | 28.09631 | 72.97360 | 38746 ft | 529 kts | 80° |
| 2026-04-30 19:17 | 28.10689 | 73.09791 | 38754 ft | 529 kts | 80° |
| 2026-04-30 19:17 | 28.11738 | 73.22213 | 38768 ft | 527 kts | 80° |
| 2026-04-30 19:18 | 28.12772 | 73.34608 | 38779 ft | 526 kts | 80° |
| 2026-04-30 19:19 | 28.13452 | 73.42853 | 38778 ft | 526 kts | 80° |
| 2026-04-30 19:19 | 28.14466 | 73.55214 | 38783 ft | 525 kts | 80° |
| 2026-04-30 19:20 | 28.15135 | 73.63446 | 38784 ft | 524 kts | 80° |
| 2026-04-30 19:21 | 28.16125 | 73.75781 | 38788 ft | 524 kts | 80° |
| 2026-04-30 19:22 | 28.17427 | 73.92219 | 38799 ft | 523 kts | 81° |
| 2026-04-30 19:23 | 28.19186 | 74.16824 | 38808 ft | 526 kts | 84° |
| 2026-04-30 19:24 | 28.19421 | 74.29263 | 38819 ft | 526 kts | 85° |
| 2026-04-30 19:25 | 28.19877 | 74.49978 | 38825 ft | 526 kts | 84° |
| 2026-04-30 19:26 | 28.20271 | 74.66577 | 38823 ft | 527 kts | 84° |
| 2026-04-30 19:27 | 28.20547 | 74.79037 | 38825 ft | 527 kts | 84° |
| 2026-04-30 19:28 | 28.20815 | 74.91508 | 38821 ft | 528 kts | 84° |
| 2026-04-30 19:29 | 28.21152 | 75.08129 | 38830 ft | 527 kts | 84° |
| 2026-04-30 19:30 | 28.21460 | 75.24605 | 38225 ft | 505 kts | 84° |
| 2026-04-30 19:30 | 28.21602 | 75.32552 | 34983 ft | 509 kts | 83° |
| 2026-04-30 19:31 | 28.21750 | 75.40609 | 31931 ft | 507 kts | 82° |
| 2026-04-30 19:31 | 28.21821 | 75.44642 | 30326 ft | 515 kts | 83° |
| 2026-04-30 19:31 | 28.21959 | 75.52756 | 27811 ft | 511 kts | 84° |
| 2026-04-30 19:32 | 28.22021 | 75.56753 | 26745 ft | 503 kts | 85° |
| 2026-04-30 19:32 | 28.22080 | 75.60676 | 25787 ft | 491 kts | 85° |
| 2026-04-30 19:32 | 28.22137 | 75.64501 | 24879 ft | 480 kts | 86° |
| 2026-04-30 19:32 | 28.22197 | 75.68317 | 24347 ft | 486 kts | 87° |
| 2026-04-30 19:33 | 28.22258 | 75.72120 | 24273 ft | 480 kts | 88° |
| 2026-04-30 19:33 | 28.22315 | 75.75885 | 24244 ft | 474 kts | 88° |
| 2026-04-30 19:33 | 28.22369 | 75.79599 | 24179 ft | 469 kts | 88° |
| 2026-04-30 19:33 | 28.22423 | 75.83280 | 24016 ft | 467 kts | 88° |
| 2026-04-30 19:34 | 28.22475 | 75.86909 | 23797 ft | 466 kts | 88° |
| 2026-04-30 19:34 | 28.22527 | 75.90608 | 23693 ft | 462 kts | 88° |
| 2026-04-30 19:34 | 28.22575 | 75.94197 | 23665 ft | 458 kts | 88° |
| 2026-04-30 19:35 | 28.22602 | 75.96197 | 23647 ft | 455 kts | 88° |
| 2026-04-30 19:35 | 28.22650 | 75.99770 | 23620 ft | 450 kts | 88° |
| 2026-04-30 19:35 | 28.22695 | 76.03311 | 23589 ft | 446 kts | 88° |
| 2026-04-30 19:35 | 28.23001 | 76.06808 | 23524 ft | 437 kts | 73° |
| 2026-04-30 19:36 | 28.24152 | 76.09877 | 23494 ft | 422 kts | 58° |
| 2026-04-30 19:36 | 28.25542 | 76.12779 | 23257 ft | 415 kts | 59° |
| 2026-04-30 19:36 | 28.28070 | 76.18363 | 22355 ft | 389 kts | 60° |
| 2026-04-30 19:37 | 28.29270 | 76.21073 | 21800 ft | 379 kts | 60° |
| 2026-04-30 19:37 | 28.30428 | 76.23698 | 21378 ft | 366 kts | 60° |
| 2026-04-30 19:37 | 28.31542 | 76.26226 | 20973 ft | 354 kts | 59° |
| 2026-04-30 19:37 | 28.32628 | 76.28689 | 20597 ft | 343 kts | 59° |
| 2026-04-30 19:38 | 28.33683 | 76.31083 | 20221 ft | 335 kts | 59° |
| 2026-04-30 19:38 | 28.34718 | 76.33428 | 19868 ft | 334 kts | 59° |
| 2026-04-30 19:38 | 28.35774 | 76.35809 | 19526 ft | 342 kts | 59° |
| 2026-04-30 19:38 | 28.36871 | 76.38279 | 19158 ft | 358 kts | 59° |
| 2026-04-30 19:39 | 28.38002 | 76.40835 | 18750 ft | 365 kts | 59° |
| 2026-04-30 19:39 | 28.39142 | 76.43427 | 18326 ft | 366 kts | 59° |
| 2026-04-30 19:39 | 28.40271 | 76.46001 | 17913 ft | 365 kts | 59° |
| 2026-04-30 19:39 | 28.41401 | 76.48579 | 17500 ft | 362 kts | 59° |
| 2026-04-30 19:40 | 28.42528 | 76.51144 | 17102 ft | 361 kts | 59° |
| 2026-04-30 19:40 | 28.43645 | 76.53683 | 16696 ft | 359 kts | 59° |
| 2026-04-30 19:40 | 28.44753 | 76.56212 | 16289 ft | 357 kts | 59° |
| 2026-04-30 19:40 | 28.45862 | 76.58743 | 15882 ft | 356 kts | 59° |
| 2026-04-30 19:41 | 28.46962 | 76.61253 | 15480 ft | 354 kts | 59° |
| 2026-04-30 19:41 | 28.48058 | 76.63751 | 15080 ft | 352 kts | 59° |
| 2026-04-30 19:41 | 28.49148 | 76.66240 | 14708 ft | 350 kts | 59° |
| 2026-04-30 19:41 | 28.50217 | 76.68685 | 14563 ft | 340 kts | 59° |
| 2026-04-30 19:42 | 28.51243 | 76.71066 | 14401 ft | 329 kts | 63° |
| 2026-04-30 19:42 | 28.51749 | 76.73564 | 14192 ft | 328 kts | 86° |
| 2026-04-30 19:42 | 28.51445 | 76.76107 | 13855 ft | 321 kts | 103° |
| 2026-04-30 19:42 | 28.50888 | 76.78569 | 13536 ft | 322 kts | 103° |
| 2026-04-30 19:43 | 28.50347 | 76.81031 | 13183 ft | 321 kts | 103° |
| 2026-04-30 19:43 | 28.49810 | 76.83498 | 12839 ft | 321 kts | 103° |
| 2026-04-30 19:43 | 28.49276 | 76.85960 | 12496 ft | 320 kts | 103° |
| 2026-04-30 19:44 | 28.48223 | 76.90852 | 11808 ft | 318 kts | 103° |
| 2026-04-30 19:44 | 28.47708 | 76.93281 | 11455 ft | 315 kts | 103° |
| 2026-04-30 19:44 | 28.47186 | 76.95702 | 11118 ft | 314 kts | 103° |
| 2026-04-30 19:44 | 28.46668 | 76.98108 | 10819 ft | 311 kts | 103° |
| 2026-04-30 19:45 | 28.46156 | 77.00492 | 10497 ft | 310 kts | 103° |
| 2026-04-30 19:45 | 28.45651 | 77.02852 | 10273 ft | 304 kts | 103° |
| 2026-04-30 19:45 | 28.45156 | 77.05149 | 10184 ft | 294 kts | 103° |
| 2026-04-30 19:45 | 28.44681 | 77.07356 | 10104 ft | 283 kts | 103° |
| 2026-04-30 19:46 | 28.44224 | 77.09485 | 10022 ft | 273 kts | 103° |
| 2026-04-30 19:46 | 28.43781 | 77.11541 | 9907 ft | 265 kts | 103° |
| 2026-04-30 19:46 | 28.43355 | 77.13526 | 9523 ft | 255 kts | 104° |
| 2026-04-30 19:46 | 28.42940 | 77.15470 | 8990 ft | 253 kts | 103° |
| 2026-04-30 19:47 | 28.42534 | 77.17399 | 8382 ft | 250 kts | 103° |
| 2026-04-30 19:47 | 28.42269 | 77.18681 | 7882 ft | 252 kts | 103° |
| 2026-04-30 19:47 | 28.41746 | 77.21256 | 7025 ft | 248 kts | 103° |
| 2026-04-30 19:47 | 28.41369 | 77.23150 | 6400 ft | 244 kts | 103° |
| 2026-04-30 19:48 | 28.41002 | 77.25018 | 5799 ft | 240 kts | 103° |
| 2026-04-30 19:48 | 28.40678 | 77.26824 | 5337 ft | 226 kts | 96° |
| 2026-04-30 19:48 | 28.40946 | 77.28523 | 4795 ft | 218 kts | 63° |
| 2026-04-30 19:48 | 28.41983 | 77.29706 | 4317 ft | 211 kts | 28° |
| 2026-04-30 19:49 | 28.43380 | 77.29972 | 3887 ft | 209 kts | 352° |
| 2026-04-30 19:49 | 28.45884 | 77.28631 | 3517 ft | 191 kts | 332° |
| 2026-04-30 19:49 | 28.47036 | 77.27890 | 3396 ft | 193 kts | 332° |
| 2026-04-30 19:50 | 28.48194 | 77.27139 | 3263 ft | 191 kts | 331° |
| 2026-04-30 19:50 | 28.49336 | 77.26395 | 3148 ft | 188 kts | 331° |
| 2026-04-30 19:50 | 28.50433 | 77.25601 | 3057 ft | 190 kts | 317° |
| 2026-04-30 19:50 | 28.51054 | 77.24306 | 3049 ft | 187 kts | 288° |
| 2026-04-30 19:51 | 28.51473 | 77.22956 | 3030 ft | 176 kts | 289° |
| 2026-04-30 19:51 | 28.51826 | 77.21643 | 2760 ft | 170 kts | 284° |
| 2026-04-30 19:51 | 28.52115 | 77.20339 | 2534 ft | 167 kts | 283° |
| 2026-04-30 19:51 | 28.52385 | 77.19079 | 2333 ft | 166 kts | 283° |
| 2026-04-30 19:52 | 28.52659 | 77.17802 | 2113 ft | 166 kts | 283° |
| 2026-04-30 19:52 | 28.52928 | 77.16542 | 1891 ft | 163 kts | 283° |
| 2026-04-30 19:52 | 28.53196 | 77.15288 | 1669 ft | 162 kts | 283° |
| 2026-04-30 19:52 | 28.53451 | 77.14072 | 1514 ft | 156 kts | 283° |
| 2026-04-30 19:53 | 28.53699 | 77.12909 | 1271 ft | 158 kts | 283° |
| 2026-04-30 19:53 | 28.53971 | 77.11657 | 990 ft | 157 kts | 283° |
| 2026-04-30 19:53 | 28.54219 | 77.10505 | 801 ft | 142 kts | 283° |
| 2026-04-30 19:53 | 28.54442 | 77.09476 | 755 ft | 125 kts | 284° |
| 2026-04-30 19:54 | 28.54598 | 77.08755 | 755 ft | 61 kts | 283° |
| 2026-04-30 19:54 | 28.54689 | 77.08329 | 752 ft | 48 kts | 283° |
| 2026-04-30 19:54 | 28.54746 | 77.08088 | 751 ft | 27 kts | 292° |
| 2026-04-30 19:54 | 28.54864 | 77.07921 | 757 ft | 27 kts | 313° |
| 2026-04-30 19:55 | 28.54954 | 77.07813 | 753 ft | 9 kts | 314° |
| 2026-04-30 19:55 | 28.54956 | 77.07811 | 753 ft | 0 kts | 314° |
| 2026-04-30 19:55 | 28.54963 | 77.07803 | 757 ft | 10 kts | 314° |
| 2026-04-30 19:55 | 28.55067 | 77.07709 | 751 ft | 18 kts | 348° |
| 2026-04-30 19:56 | 28.55182 | 77.07734 | 756 ft | 17 kts | 14° |
| 2026-04-30 19:56 | 28.55296 | 77.07766 | 752 ft | 17 kts | 14° |
| 2026-04-30 19:56 | 28.55410 | 77.07800 | 756 ft | 17 kts | 14° |
| 2026-04-30 19:56 | 28.55524 | 77.07833 | 756 ft | 17 kts | 14° |
| 2026-04-30 19:57 | 28.55615 | 77.07879 | 754 ft | 12 kts | 65° |
| 2026-04-30 19:57 | 28.55636 | 77.07971 | 755 ft | 12 kts | 62° |
| 2026-04-30 19:57 | 28.55678 | 77.08057 | 752 ft | 12 kts | 60° |
| 2026-04-30 19:57 | 28.55729 | 77.08137 | 752 ft | 13 kts | 35° |
| 2026-04-30 19:58 | 28.55798 | 77.08183 | 753 ft | 11 kts | 67° |
| 2026-04-30 19:58 | 28.55790 | 77.08239 | 755 ft | 5 kts | 103° |
| 2026-04-30 19:58 | 28.55785 | 77.08260 | 754 ft | 1 kts | 104° |